Time;durP1;ratioP1;P1;durP2;ratioP2;P2;SDS_P1;SDS_P2;PMS_P1;PMS_P2;Temp;Humidity;BMP_temperature;BMP_pressure;BME280_temperature;BME280_humidity;BME280_pressure;Samples;Min_cycle;Max_cycle;Signal;HPM_P1;HPM_P2
2023/01/17 00:02:14;;;;;;;0.30;0.30;;;3.60;99.90;;;;;;5030660;28;20449;-82
2023/01/17 00:10:25;;;;;;;0.40;0.40;;;3.50;99.90;;;;;;5048554;28;20444;-82
2023/01/17 00:12:53;;;;;;;0.40;0.40;;;3.50;99.90;;;;;;5047965;28;20437;-82
2023/01/17 00:15:19;;;;;;;0.30;0.30;;;3.50;99.90;;;;;;5040092;28;21019;-84
2023/01/17 00:17:46;;;;;;;0.30;0.30;;;3.50;99.90;;;;;;5036249;28;20449;-85
2023/01/17 01:35:11;;;;;;;0.30;0.30;;;3.30;99.90;;;;;;5050835;28;20444;-83
2023/01/17 01:37:37;;;;;;;0.20;0.20;;;3.30;99.90;;;;;;5052224;28;20445;-83
2023/01/17 01:40:03;;;;;;;0.40;0.40;;;3.30;99.90;;;;;;5051434;28;20222;-83
2023/01/17 01:42:28;;;;;;;0.30;0.30;;;3.30;99.90;;;;;;5035032;28;20190;-82
2023/01/17 01:44:54;;;;;;;0.30;0.30;;;3.20;99.90;;;;;;5033937;28;20460;-82
2023/01/17 01:47:27;;;;;;;0.30;0.30;;;3.30;99.90;;;;;;5052002;28;20618;-82
2023/01/17 01:49:52;;;;;;;0.30;0.30;;;3.20;99.90;;;;;;5050861;28;20464;-83
2023/01/17 01:52:21;;;;;;;0.30;0.30;;;3.30;99.90;;;;;;5049366;28;20441;-83
2023/01/17 01:54:54;;;;;;;0.30;0.30;;;3.30;99.90;;;;;;5051147;28;20268;-83
2023/01/17 01:57:22;;;;;;;0.30;0.30;;;3.20;99.90;;;;;;5033865;28;20965;-83
2023/01/17 01:59:55;;;;;;;0.30;0.30;;;3.20;99.90;;;;;;5046763;28;20950;-82
2023/01/17 02:02:20;;;;;;;0.40;0.40;;;3.20;99.90;;;;;;5049183;28;20472;-83
2023/01/17 02:04:46;;;;;;;0.40;0.40;;;3.20;99.90;;;;;;5033521;28;20872;-81
2023/01/17 02:07:20;;;;;;;0.30;0.30;;;3.20;99.90;;;;;;5052812;28;20666;-84
2023/01/17 02:09:45;;;;;;;0.30;0.30;;;3.20;99.90;;;;;;5051639;28;20452;-84
2023/01/17 02:12:12;;;;;;;0.40;0.40;;;3.20;99.90;;;;;;5052557;28;20493;-84
2023/01/17 02:14:37;;;;;;;0.30;0.30;;;3.20;99.90;;;;;;5051153;28;20707;-83
2023/01/17 02:17:38;;;;;;;0.30;0.30;;;3.10;99.90;;;;;;5033366;28;20437;-83
2023/01/17 02:20:29;;;;;;;0.20;0.20;;;3.10;99.90;;;;;;5037223;28;20664;-84
2023/01/17 02:23:31;;;;;;;0.40;0.40;;;3.00;99.90;;;;;;5042276;28;20449;-84
2023/01/17 02:26:34;;;;;;;0.30;0.30;;;3.00;99.90;;;;;;5047408;28;20886;-84
2023/01/17 02:29:37;;;;;;;0.30;0.30;;;3.00;99.90;;;;;;5038734;28;20495;-83
2023/01/17 02:32:11;;;;;;;0.30;0.30;;;3.00;99.90;;;;;;5049383;28;20448;-83
2023/01/17 02:34:55;;;;;;;0.30;0.30;;;3.00;99.90;;;;;;5032529;28;20476;-83
2023/01/17 02:37:47;;;;;;;0.30;0.30;;;3.00;99.90;;;;;;5053020;28;20422;-83
2023/01/17 02:40:21;;;;;;;0.30;0.30;;;3.00;99.90;;;;;;5053975;28;20508;-83
2023/01/17 02:42:53;;;;;;;0.40;0.40;;;3.00;99.90;;;;;;5052142;28;20444;-84
2023/01/17 02:45:19;;;;;;;0.20;0.20;;;3.00;99.90;;;;;;5050395;28;20444;-83
2023/01/17 02:47:45;;;;;;;0.30;0.30;;;3.00;99.90;;;;;;5034687;28;21164;-83
2023/01/17 02:50:16;;;;;;;0.30;0.30;;;3.00;99.90;;;;;;5050968;28;20571;-84
2023/01/17 02:53:07;;;;;;;0.30;0.30;;;3.00;99.90;;;;;;5051977;28;20194;-84
2023/01/17 02:55:53;;;;;;;0.30;0.30;;;3.00;99.90;;;;;;5036722;28;20932;-84
2023/01/17 02:58:51;;;;;;;0.30;0.30;;;3.00;99.90;;;;;;5032319;28;20465;-83
2023/01/17 03:01:41;;;;;;;0.27;0.27;;;2.90;99.90;;;;;;5047023;28;20452;-84
2023/01/17 03:04:38;;;;;;;0.30;0.30;;;2.90;99.90;;;;;;5050085;28;20460;-84
2023/01/17 03:07:09;;;;;;;0.30;0.30;;;3.00;99.90;;;;;;5010482;28;20481;-84
2023/01/17 03:09:35;;;;;;;0.20;0.20;;;3.00;99.90;;;;;;5033924;28;20449;-84
2023/01/17 03:12:03;;;;;;;0.30;0.30;;;2.90;99.90;;;;;;5049124;28;21219;-83
2023/01/17 03:14:30;;;;;;;0.30;0.30;;;2.90;99.90;;;;;;5050411;28;20532;-84
2023/01/17 03:16:56;;;;;;;0.30;0.30;;;2.90;99.90;;;;;;5048840;28;20432;-83
2023/01/17 03:19:21;;;;;;;0.40;0.40;;;2.90;99.90;;;;;;5047289;28;20494;-83
2023/01/17 03:21:48;;;;;;;0.30;0.30;;;2.90;99.90;;;;;;5045876;28;20193;-84
2023/01/17 03:24:13;;;;;;;0.30;0.30;;;2.90;99.90;;;;;;5049276;28;20191;-84
2023/01/17 03:26:39;;;;;;;0.20;0.20;;;2.90;99.90;;;;;;5048780;28;20429;-84
2023/01/17 03:29:04;;;;;;;0.40;0.40;;;2.90;99.90;;;;;;5049601;28;20791;-84
2023/01/17 03:31:30;;;;;;;0.40;0.40;;;2.90;99.90;;;;;;5048642;28;20187;-84
2023/01/17 03:33:55;;;;;;;0.40;0.40;;;3.00;99.90;;;;;;5049645;28;20183;-84
2023/01/17 03:36:21;;;;;;;0.30;0.30;;;2.90;99.90;;;;;;5044212;28;20198;-84
2023/01/17 03:38:46;;;;;;;0.30;0.30;;;3.00;99.90;;;;;;5022455;28;20218;-84
2023/01/17 03:41:11;;;;;;;0.33;0.33;;;3.00;99.90;;;;;;5033053;28;20683;-84
2023/01/17 03:43:37;;;;;;;0.30;0.30;;;3.00;99.90;;;;;;5031981;28;20213;-84
2023/01/17 03:46:19;;;;;;;0.30;0.30;;;2.90;99.90;;;;;;5046580;28;20657;-84
2023/01/17 03:48:44;;;;;;;0.30;0.30;;;3.00;99.90;;;;;;5026570;28;20191;-83
2023/01/17 03:51:10;;;;;;;0.30;0.30;;;3.00;99.90;;;;;;5030940;28;20495;-84
2023/01/17 03:53:35;;;;;;;0.30;0.30;;;3.00;99.90;;;;;;5045412;28;20666;-84
2023/01/17 03:56:01;;;;;;;0.33;0.33;;;3.00;99.90;;;;;;5050176;28;20552;-84
2023/01/17 03:58:26;;;;;;;0.30;0.30;;;2.90;99.90;;;;;;5050396;28;20207;-84
2023/01/17 04:00:52;;;;;;;0.30;0.30;;;3.00;99.90;;;;;;5031062;28;20648;-84
2023/01/17 04:03:17;;;;;;;0.40;0.40;;;2.90;99.90;;;;;;5040732;28;20175;-85
2023/01/17 04:05:42;;;;;;;0.30;0.30;;;3.00;99.90;;;;;;5049473;28;20226;-85
2023/01/17 04:08:08;;;;;;;0.40;0.40;;;3.00;99.90;;;;;;5048445;28;21012;-85
2023/01/17 04:10:34;;;;;;;0.30;0.30;;;2.90;99.90;;;;;;5046696;28;21291;-84
2023/01/17 04:12:59;;;;;;;0.30;0.30;;;3.00;99.90;;;;;;5049116;28;20674;-84
2023/01/17 04:15:25;;;;;;;0.30;0.30;;;2.90;99.90;;;;;;5048041;28;20201;-84
2023/01/17 04:17:50;;;;;;;0.30;0.30;;;2.90;99.90;;;;;;5032860;28;20179;-85
2023/01/17 04:20:27;;;;;;;0.30;0.30;;;2.90;99.90;;;;;;5039264;28;20225;-85
2023/01/17 04:22:53;;;;;;;0.30;0.30;;;2.90;99.90;;;;;;5039609;28;20229;-84
2023/01/17 04:25:18;;;;;;;0.20;0.20;;;3.00;99.90;;;;;;5050572;28;20456;-85
2023/01/17 04:27:44;;;;;;;0.30;0.30;;;2.90;99.90;;;;;;5031211;28;20183;-84
2023/01/17 04:30:10;;;;;;;0.30;0.30;;;2.90;99.90;;;;;;5046476;28;20198;-85
2023/01/17 04:32:36;;;;;;;0.30;0.30;;;2.90;99.90;;;;;;5032070;28;20197;-85
2023/01/17 04:35:03;;;;;;;0.30;0.30;;;3.00;99.90;;;;;;5030401;28;20449;-85
2023/01/17 04:37:29;;;;;;;0.30;0.30;;;2.90;99.90;;;;;;5047043;28;20550;-85
2023/01/17 04:39:54;;;;;;;0.30;0.30;;;3.00;99.90;;;;;;5045572;28;20493;-84
2023/01/17 04:42:20;;;;;;;0.30;0.30;;;3.00;99.90;;;;;;5031334;28;20179;-85
2023/01/17 04:44:45;;;;;;;0.30;0.30;;;3.00;99.90;;;;;;5046065;28;20195;-84
2023/01/17 04:47:11;;;;;;;0.30;0.30;;;3.00;99.90;;;;;;5044899;28;20210;-84
2023/01/17 04:49:36;;;;;;;0.30;0.30;;;3.00;99.90;;;;;;5047210;28;20542;-85
2023/01/17 04:52:02;;;;;;;0.20;0.20;;;2.90;99.90;;;;;;5048593;28;20566;-84
2023/01/17 04:54:27;;;;;;;0.30;0.30;;;2.90;99.90;;;;;;5048505;28;20174;-84
2023/01/17 04:56:53;;;;;;;0.30;0.30;;;2.90;99.90;;;;;;5032100;28;20936;-84
2023/01/17 04:59:18;;;;;;;0.30;0.30;;;2.90;99.90;;;;;;5049161;28;20280;-85
2023/01/17 05:01:46;;;;;;;0.30;0.30;;;3.00;99.90;;;;;;5047561;28;20194;-84
2023/01/17 05:04:11;;;;;;;0.30;0.30;;;3.00;99.90;;;;;;5045608;28;20187;-85
2023/01/17 05:06:37;;;;;;;0.30;0.30;;;2.90;99.90;;;;;;5049132;28;20593;-85
2023/01/17 05:09:03;;;;;;;0.30;0.30;;;2.90;99.90;;;;;;5043155;28;20717;-84
2023/01/17 05:11:28;;;;;;;0.30;0.30;;;3.00;99.90;;;;;;5045521;28;20603;-85
2023/01/17 05:13:54;;;;;;;0.40;0.40;;;3.00;99.90;;;;;;5049561;28;20205;-84
2023/01/17 05:16:19;;;;;;;0.30;0.30;;;3.00;99.90;;;;;;5038978;28;20201;-85
2023/01/17 05:18:45;;;;;;;0.30;0.30;;;3.00;99.90;;;;;;5044583;28;20218;-84
2023/01/17 05:21:10;;;;;;;0.30;0.30;;;3.00;99.90;;;;;;5042739;28;20469;-85
2023/01/17 05:23:36;;;;;;;0.30;0.30;;;3.00;99.90;;;;;;5046042;28;20902;-84
2023/01/17 05:26:02;;;;;;;0.30;0.30;;;3.00;99.90;;;;;;5049038;28;20269;-84
2023/01/17 05:28:28;;;;;;;0.30;0.30;;;3.00;99.90;;;;;;5049316;28;20503;-84
2023/01/17 05:30:53;;;;;;;0.30;0.30;;;2.90;99.90;;;;;;5047135;28;20194;-84
2023/01/17 05:33:19;;;;;;;0.30;0.30;;;3.00;99.90;;;;;;5043190;28;20195;-85
2023/01/17 05:35:44;;;;;;;0.20;0.20;;;3.00;99.90;;;;;;5038346;28;20191;-85
2023/01/17 05:38:10;;;;;;;0.30;0.30;;;3.00;99.90;;;;;;5047803;28;20207;-85
2023/01/17 05:40:35;;;;;;;0.30;0.30;;;3.00;99.90;;;;;;5041383;28;20194;-85
2023/01/17 05:43:02;;;;;;;0.30;0.30;;;3.00;99.90;;;;;;5035572;28;20730;-84
2023/01/17 05:45:30;;;;;;;0.30;0.30;;;3.00;99.90;;;;;;5040291;28;20186;-85
2023/01/17 05:47:57;;;;;;;0.30;0.30;;;3.00;99.90;;;;;;5027202;28;20441;-85
2023/01/17 05:50:32;;;;;;;0.27;0.27;;;3.00;99.90;;;;;;5044317;28;20481;-84
2023/01/17 05:53:04;;;;;;;0.30;0.30;;;3.10;99.90;;;;;;5042704;28;20486;-84
2023/01/17 05:55:31;;;;;;;0.23;0.23;;;3.10;99.90;;;;;;5027049;28;20441;-84
2023/01/17 05:57:57;;;;;;;0.30;0.30;;;3.10;99.90;;;;;;5046652;28;20970;-85
2023/01/17 06:00:23;;;;;;;0.30;0.30;;;3.10;99.90;;;;;;5028974;28;20473;-82
2023/01/17 06:02:51;;;;;;;0.30;0.30;;;3.10;99.90;;;;;;5021728;28;23010;-83
2023/01/17 06:05:16;;;;;;;0.37;0.37;;;3.20;99.90;;;;;;5042229;28;20272;-85
2023/01/17 06:07:44;;;;;;;0.27;0.27;;;3.20;99.90;;;;;;5032647;28;20445;-85
2023/01/17 06:10:10;;;;;;;0.30;0.30;;;3.10;99.90;;;;;;5042157;28;20271;-85
2023/01/17 06:12:36;;;;;;;0.30;0.30;;;3.10;99.90;;;;;;5027820;28;20430;-85
2023/01/17 06:15:01;;;;;;;0.30;0.30;;;3.10;99.90;;;;;;5027247;28;20469;-84
2023/01/17 06:17:27;;;;;;;0.30;0.30;;;3.10;99.90;;;;;;5043405;28;20437;-84
2023/01/17 06:19:53;;;;;;;0.30;0.30;;;3.20;99.90;;;;;;5046610;28;20241;-85
2023/01/17 06:22:18;;;;;;;0.30;0.30;;;3.20;99.90;;;;;;5030571;28;20179;-84
2023/01/17 06:24:43;;;;;;;0.30;0.30;;;3.20;99.90;;;;;;5046147;28;20195;-82
2023/01/17 06:27:09;;;;;;;0.30;0.30;;;3.20;99.90;;;;;;5044082;28;20190;-81
2023/01/17 06:29:35;;;;;;;0.20;0.20;;;3.20;99.90;;;;;;5044848;28;20182;-82
2023/01/17 06:32:01;;;;;;;0.20;0.20;;;3.20;99.90;;;;;;5048214;28;20282;-83
2023/01/17 06:34:27;;;;;;;0.30;0.30;;;3.20;99.90;;;;;;5044931;28;20433;-86
2023/01/17 06:36:53;;;;;;;0.30;0.30;;;3.20;99.90;;;;;;5039110;28;20511;-85
2023/01/17 06:39:18;;;;;;;0.30;0.30;;;3.30;99.90;;;;;;5045644;28;20236;-85
2023/01/17 06:41:44;;;;;;;0.20;0.20;;;3.20;99.90;;;;;;5030021;28;20194;-85
2023/01/17 06:44:10;;;;;;;0.30;0.30;;;3.30;99.90;;;;;;5049229;28;20710;-85
2023/01/17 06:46:35;;;;;;;0.20;0.20;;;3.20;99.90;;;;;;5048181;28;20194;-85
2023/01/17 06:49:01;;;;;;;0.30;0.30;;;3.30;99.90;;;;;;5044106;28;20266;-83
2023/01/17 06:51:26;;;;;;;0.30;0.30;;;3.20;99.90;;;;;;5048256;28;20241;-85
2023/01/17 06:53:52;;;;;;;0.20;0.20;;;3.20;99.90;;;;;;5051567;28;20225;-84
2023/01/17 06:56:18;;;;;;;0.30;0.30;;;3.10;99.90;;;;;;5047304;28;20697;-85
2023/01/17 06:58:47;;;;;;;0.30;0.30;;;3.10;99.90;;;;;;5042069;28;20241;-83
2023/01/17 07:01:12;;;;;;;0.30;0.30;;;3.00;99.90;;;;;;5048382;28;20282;-84
2023/01/17 07:03:38;;;;;;;0.30;0.30;;;2.80;99.90;;;;;;5048177;28;20512;-83
2023/01/17 07:06:04;;;;;;;0.37;0.37;;;2.70;99.90;;;;;;5046460;28;20226;-84
2023/01/17 07:08:30;;;;;;;0.30;0.30;;;2.60;99.90;;;;;;5043708;28;20205;-84
2023/01/17 07:11:01;;;;;;;0.33;0.33;;;2.60;99.90;;;;;;5027684;28;20476;-84
2023/01/17 07:13:27;;;;;;;0.40;0.40;;;2.60;99.90;;;;;;5039214;28;20449;-83
2023/01/17 07:15:53;;;;;;;0.30;0.30;;;2.50;99.90;;;;;;5017224;28;20903;-84
2023/01/17 07:18:21;;;;;;;0.30;0.30;;;2.50;99.90;;;;;;5025201;28;20524;-83
2023/01/17 07:20:51;;;;;;;0.30;0.30;;;2.30;99.90;;;;;;5043632;28;20543;-83
2023/01/17 07:23:18;;;;;;;0.30;0.30;;;2.30;99.90;;;;;;5046026;28;20437;-83
2023/01/17 07:25:49;;;;;;;0.40;0.40;;;2.20;99.90;;;;;;5049253;28;20473;-82
2023/01/17 07:28:14;;;;;;;0.40;0.40;;;2.20;99.90;;;;;;5044929;28;20503;-82
2023/01/17 07:30:40;;;;;;;0.40;0.40;;;2.20;99.90;;;;;;5043982;28;20445;-82
2023/01/17 07:33:05;;;;;;;0.40;0.40;;;2.20;99.90;;;;;;5039015;28;20220;-83
2023/01/17 07:35:31;;;;;;;0.40;0.40;;;2.20;99.90;;;;;;5028534;28;20198;-83
2023/01/17 07:37:56;;;;;;;0.30;0.30;;;2.20;99.90;;;;;;5044042;28;20237;-81
2023/01/17 07:40:23;;;;;;;0.40;0.40;;;2.00;99.90;;;;;;5042233;28;20221;-82
2023/01/17 07:42:48;;;;;;;0.40;0.40;;;1.90;99.90;;;;;;5044323;28;20291;-81
2023/01/17 07:45:15;;;;;;;0.40;0.40;;;1.90;99.90;;;;;;5047596;28;20956;-82
2023/01/17 07:47:41;;;;;;;0.50;0.50;;;1.90;99.90;;;;;;5031821;28;20179;-81
2023/01/17 07:50:08;;;;;;;0.30;0.30;;;1.90;99.90;;;;;;5042930;28;20862;-82
2023/01/17 07:52:33;;;;;;;0.40;0.40;;;1.80;99.90;;;;;;5040735;28;20196;-82
2023/01/17 07:54:59;;;;;;;0.30;0.30;;;1.80;99.90;;;;;;5045034;28;20503;-82
2023/01/17 07:57:25;;;;;;;0.40;0.40;;;1.90;99.90;;;;;;5045850;28;20206;-82
2023/01/17 07:59:51;;;;;;;0.40;0.40;;;1.90;99.90;;;;;;5042797;28;20691;-82
2023/01/17 08:02:18;;;;;;;0.40;0.40;;;1.80;99.90;;;;;;5028155;28;20524;-82
2023/01/17 08:04:45;;;;;;;0.50;0.50;;;1.80;99.90;;;;;;5046493;28;20485;-82
2023/01/17 08:07:12;;;;;;;0.37;0.37;;;1.80;99.90;;;;;;5047370;28;20468;-81
2023/01/17 08:09:42;;;;;;;0.30;0.30;;;1.80;99.90;;;;;;5042292;28;20806;-82
2023/01/17 08:12:08;;;;;;;0.33;0.33;;;1.90;99.90;;;;;;5045474;28;20966;-82
2023/01/17 08:14:33;;;;;;;0.33;0.33;;;1.90;99.90;;;;;;5045898;28;20449;-82
2023/01/17 08:17:04;;;;;;;0.40;0.40;;;1.80;99.90;;;;;;5026120;28;20447;-81
2023/01/17 08:19:30;;;;;;;0.30;0.30;;;1.90;99.90;;;;;;5046362;28;20233;-82
2023/01/17 08:21:55;;;;;;;0.37;0.37;;;1.80;99.90;;;;;;5048876;28;20453;-81
2023/01/17 08:24:21;;;;;;;0.40;0.40;;;1.90;99.90;;;;;;5043489;28;20202;-81
2023/01/17 08:26:46;;;;;;;0.30;0.30;;;1.90;99.90;;;;;;5047961;28;20689;-82
2023/01/17 08:29:12;;;;;;;0.30;0.30;;;1.90;99.90;;;;;;5050082;28;20259;-82
2023/01/17 08:31:37;;;;;;;0.40;0.40;;;1.90;99.90;;;;;;5043408;28;20209;-83
2023/01/17 08:34:03;;;;;;;0.30;0.30;;;2.00;99.90;;;;;;5046946;28;20194;-83
2023/01/17 08:36:30;;;;;;;0.30;0.30;;;2.00;99.90;;;;;;5047315;28;20187;-82
2023/01/17 08:38:55;;;;;;;0.30;0.30;;;2.00;99.90;;;;;;5046385;28;20931;-83
2023/01/17 08:41:22;;;;;;;0.30;0.30;;;2.00;99.90;;;;;;5044365;28;20475;-83
2023/01/17 08:43:49;;;;;;;0.30;0.30;;;2.00;99.90;;;;;;5039066;28;20285;-82
2023/01/17 08:46:15;;;;;;;0.30;0.30;;;2.00;99.90;;;;;;5046789;28;20886;-84
2023/01/17 08:48:40;;;;;;;0.30;0.30;;;2.10;99.90;;;;;;5046644;28;20564;-83
2023/01/17 08:51:06;;;;;;;0.30;0.30;;;2.10;99.90;;;;;;5046861;28;20273;-83
2023/01/17 08:53:32;;;;;;;0.30;0.30;;;2.20;99.90;;;;;;5026935;28;20178;-84
2023/01/17 08:56:02;;;;;;;0.40;0.40;;;2.20;99.90;;;;;;5030481;28;20205;-83
2023/01/17 08:58:29;;;;;;;0.30;0.30;;;2.20;99.90;;;;;;5030379;28;20616;-84
2023/01/17 09:00:58;;;;;;;0.30;0.30;;;2.20;99.90;;;;;;5041203;28;20466;-84
2023/01/17 09:03:23;;;;;;;0.40;0.40;;;2.30;99.90;;;;;;5048282;28;21039;-83
2023/01/17 09:05:49;;;;;;;0.30;0.30;;;2.40;99.90;;;;;;5025047;28;20570;-83
2023/01/17 09:08:14;;;;;;;0.40;0.40;;;2.30;99.90;;;;;;5008914;28;20230;-84
2023/01/17 09:10:40;;;;;;;0.40;0.40;;;2.40;99.90;;;;;;5007829;28;20195;-83
2023/01/17 09:13:06;;;;;;;0.30;0.30;;;2.50;99.90;;;;;;5009284;28;20272;-83
2023/01/17 09:15:31;;;;;;;0.30;0.30;;;2.50;99.90;;;;;;5005961;28;20587;-84
2023/01/17 09:17:57;;;;;;;0.40;0.40;;;2.50;99.90;;;;;;5006768;28;20496;-83
2023/01/17 09:20:23;;;;;;;0.40;0.40;;;2.60;99.90;;;;;;5004121;28;20220;-83
2023/01/17 09:22:49;;;;;;;0.40;0.40;;;2.60;99.90;;;;;;4993217;28;20665;-82
2023/01/17 09:25:15;;;;;;;0.40;0.40;;;2.60;99.90;;;;;;5002480;28;20490;-83
2023/01/17 09:27:44;;;;;;;0.30;0.30;;;2.60;99.90;;;;;;5008269;28;20512;-82
2023/01/17 09:30:10;;;;;;;0.30;0.30;;;2.70;99.90;;;;;;5007945;28;20543;-84
2023/01/17 09:32:36;;;;;;;0.40;0.40;;;2.60;99.90;;;;;;5008164;28;20505;-83
2023/01/17 09:35:04;;;;;;;0.30;0.30;;;2.60;99.90;;;;;;5003925;28;20454;-83
2023/01/17 09:37:29;;;;;;;0.30;0.30;;;2.70;99.90;;;;;;5010411;28;20431;-84
2023/01/17 09:39:55;;;;;;;0.40;0.40;;;2.70;99.90;;;;;;5008940;28;20482;-84
2023/01/17 09:42:38;;;;;;;0.30;0.30;;;2.60;99.90;;;;;;5005923;28;20180;-83
2023/01/17 09:45:09;;;;;;;0.30;0.30;;;2.70;99.90;;;;;;5004032;28;20195;-83
2023/01/17 09:47:45;;;;;;;0.40;0.40;;;2.70;99.90;;;;;;4999350;28;20443;-83
2023/01/17 09:50:22;;;;;;;0.40;0.40;;;2.70;99.90;;;;;;4991046;28;20415;-83
2023/01/17 09:52:48;;;;;;;0.33;0.33;;;2.80;99.90;;;;;;5002889;28;20451;-83
2023/01/17 09:55:15;;;;;;;0.40;0.40;;;2.80;99.90;;;;;;5010050;28;20447;-82
2023/01/17 09:57:59;;;;;;;0.40;0.40;;;2.80;99.90;;;;;;5011420;28;20285;-83
2023/01/17 10:00:37;;;;;;;0.40;0.40;;;2.90;99.90;;;;;;5007222;28;20479;-81
2023/01/17 10:03:18;;;;;;;0.37;0.37;;;2.90;99.90;;;;;;4998970;28;20446;-81
2023/01/17 10:06:08;;;;;;;0.30;0.30;;;2.90;99.90;;;;;;5015121;28;20485;-82
2023/01/17 10:08:54;;;;;;;0.30;0.30;;;3.00;99.90;;;;;;5033364;28;20413;-81
2023/01/17 10:11:38;;;;;;;0.30;0.30;;;3.10;99.90;;;;;;4997840;28;20450;-80
2023/01/17 10:14:16;;;;;;;0.30;0.30;;;3.20;99.90;;;;;;5026962;28;20852;-80
2023/01/17 10:17:09;;;;;;;0.30;0.30;;;3.60;99.90;;;;;;5018355;28;20475;-81
2023/01/17 10:20:02;;;;;;;0.30;0.30;;;3.70;99.90;;;;;;5023887;28;20492;-83
2023/01/17 10:22:40;;;;;;;0.37;0.37;;;3.90;99.90;;;;;;5031100;28;20549;-81
2023/01/17 10:25:24;;;;;;;0.30;0.30;;;4.40;99.90;;;;;;5026329;28;20835;-81
2023/01/17 10:28:11;;;;;;;0.30;0.30;;;4.60;99.90;;;;;;5022189;28;20936;-81
2023/01/17 10:30:42;;;;;;;0.30;0.30;;;4.80;99.90;;;;;;5019434;28;20438;-81
2023/01/17 10:33:20;;;;;;;0.30;0.30;;;5.00;99.90;;;;;;5027562;28;20434;-81
2023/01/17 10:35:57;;;;;;;0.30;0.30;;;5.00;99.90;;;;;;5024893;28;20507;-82
2023/01/17 10:38:36;;;;;;;0.33;0.33;;;5.20;99.90;;;;;;5014336;28;20426;-82
2023/01/17 10:41:09;;;;;;;0.20;0.20;;;6.20;99.90;;;;;;5028291;28;21088;-82
2023/01/17 10:43:43;;;;;;;0.30;0.30;;;6.70;99.90;;;;;;5026710;28;20439;-82
2023/01/17 10:46:15;;;;;;;0.30;0.30;;;7.30;99.90;;;;;;5028520;28;20930;-82
2023/01/17 10:48:43;;;;;;;0.20;0.20;;;7.90;99.90;;;;;;5018317;28;20518;-82
2023/01/17 10:51:41;;;;;;;0.30;0.30;;;8.40;99.90;;;;;;5027700;28;20714;-80
2023/01/17 10:54:48;;;;;;;0.30;0.30;;;8.90;99.90;;;;;;5028171;28;21065;-82
2023/01/17 10:57:23;;;;;;;0.20;0.20;;;8.80;99.90;;;;;;5032717;28;20450;-82
2023/01/17 10:59:50;;;;;;;0.20;0.20;;;8.30;99.90;;;;;;5030447;28;20539;-81
2023/01/17 11:02:26;;;;;;;0.20;0.20;;;8.60;99.90;;;;;;5029728;28;20555;-81
2023/01/17 11:04:54;;;;;;;0.20;0.20;;;8.30;99.90;;;;;;5024302;28;21010;-80
2023/01/17 11:07:21;;;;;;;0.20;0.20;;;8.50;99.90;;;;;;5049128;28;20506;-81
2023/01/17 11:09:52;;;;;;;0.20;0.20;;;8.10;99.90;;;;;;5046323;28;20452;-82
2023/01/17 11:12:26;;;;;;;0.30;0.30;;;6.90;99.90;;;;;;5027042;28;21367;-81
2023/01/17 11:15:07;;;;;;;0.30;0.30;;;6.60;99.90;;;;;;5029130;28;20449;-81
2023/01/17 11:17:36;;;;;;;0.30;0.30;;;6.80;99.90;;;;;;5049009;28;20494;-82
2023/01/17 11:20:35;;;;;;;0.20;0.20;;;6.90;99.90;;;;;;5033745;28;20480;-81
2023/01/17 11:23:06;;;;;;;0.20;0.20;;;7.60;99.90;;;;;;5020037;28;21473;-79
2023/01/17 11:25:35;;;;;;;0.20;0.20;;;8.10;99.90;;;;;;5045859;28;20445;-79
2023/01/17 11:28:16;;;;;;;0.30;0.30;;;8.50;99.90;;;;;;5040287;28;20445;-80
2023/01/17 11:30:59;;;;;;;0.30;0.30;;;8.00;99.90;;;;;;5047137;28;20835;-80
2023/01/17 11:33:46;;;;;;;0.20;0.20;;;8.00;99.90;;;;;;5047959;28;20448;-81
2023/01/17 11:36:22;;;;;;;0.20;0.20;;;8.20;99.90;;;;;;5031718;28;20562;-80
2023/01/17 11:39:20;;;;;;;0.20;0.20;;;7.20;99.90;;;;;;5038506;28;20477;-80
2023/01/17 11:41:46;;;;;;;0.20;0.20;;;8.40;99.90;;;;;;5041740;28;20444;-78
2023/01/17 11:44:30;;;;;;;0.20;0.20;;;9.10;99.90;;;;;;5030387;28;20479;-80
2023/01/17 11:47:13;;;;;;;0.20;0.20;;;8.80;99.90;;;;;;5031896;28;20636;-80
2023/01/17 11:49:40;;;;;;;0.27;0.27;;;7.70;99.90;;;;;;5050496;28;20808;-80
2023/01/17 11:52:17;;;;;;;0.30;0.30;;;7.50;99.90;;;;;;5047909;28;20445;-80
2023/01/17 11:54:45;;;;;;;0.20;0.20;;;8.00;99.90;;;;;;5047425;28;20455;-80
2023/01/17 11:57:24;;;;;;;0.20;0.20;;;8.70;99.90;;;;;;5041183;28;20446;-80
2023/01/17 12:00:13;;;;;;;0.20;0.20;;;9.30;99.90;;;;;;5040539;28;20568;-80
2023/01/17 12:03:04;;;;;;;0.20;0.20;;;8.40;99.90;;;;;;5033455;28;20441;-80
2023/01/17 12:06:01;;;;;;;0.23;0.23;;;7.20;99.90;;;;;;5049032;28;20484;-79
2023/01/17 12:08:41;;;;;;;0.30;0.30;;;5.70;99.90;;;;;;5036328;28;20891;-80
2023/01/17 12:11:29;;;;;;;0.30;0.30;;;5.30;99.90;;;;;;5044481;28;20944;-79
2023/01/17 12:14:33;;;;;;;0.30;0.30;;;6.40;99.90;;;;;;5023014;28;20499;-79
2023/01/17 12:17:32;;;;;;;0.20;0.20;;;8.00;99.90;;;;;;5040280;28;20932;-79
2023/01/17 12:20:00;;;;;;;0.30;0.30;;;8.10;99.90;;;;;;5037296;28;20490;-79
2023/01/17 12:22:55;;;;;;;0.23;0.23;;;7.80;99.90;;;;;;5046446;28;20437;-80
2023/01/17 12:25:38;;;;;;;0.20;0.20;;;8.60;99.90;;;;;;5038298;28;20437;-78
2023/01/17 12:28:45;;;;;;;0.20;0.20;;;8.90;99.90;;;;;;5044466;28;20437;-79
2023/01/17 12:31:27;;;;;;;0.20;0.20;;;9.50;99.90;;;;;;5045247;28;20689;-80
2023/01/17 12:34:11;;;;;;;0.20;0.20;;;10.50;99.90;;;;;;5029376;28;20492;-79
2023/01/17 12:36:51;;;;;;;0.20;0.20;;;9.50;99.90;;;;;;5031497;28;20499;-79
2023/01/17 12:39:20;;;;;;;0.20;0.20;;;8.60;99.90;;;;;;5046321;28;20846;-78
2023/01/17 12:42:04;;;;;;;0.20;0.20;;;9.40;99.90;;;;;;5025661;28;21149;-78
2023/01/17 12:44:51;;;;;;;0.20;0.20;;;9.70;99.90;;;;;;5048024;28;20955;-78
2023/01/17 12:47:18;;;;;;;0.20;0.20;;;9.80;99.90;;;;;;5030305;28;20506;-79
2023/01/17 12:50:10;;;;;;;0.20;0.20;;;9.10;99.90;;;;;;5043734;28;20429;-79
2023/01/17 12:52:53;;;;;;;0.30;0.30;;;8.00;99.90;;;;;;5039142;28;20559;-78
2023/01/17 12:55:45;;;;;;;0.20;0.20;;;6.90;99.90;;;;;;5046619;28;20445;-78
2023/01/17 12:58:18;;;;;;;0.20;0.20;;;6.80;99.90;;;;;;5037236;28;20564;-79
2023/01/17 13:00:47;;;;;;;0.30;0.30;;;5.70;99.90;;;;;;5039383;28;20535;-79
2023/01/17 13:03:54;;;;;;;0.30;0.30;;;5.10;99.90;;;;;;5041408;28;20447;-81
2023/01/17 13:06:52;;;;;;;0.30;0.30;;;4.90;99.90;;;;;;5038162;28;20472;-81
2023/01/17 13:09:21;;;;;;;0.30;0.30;;;4.40;99.90;;;;;;5044260;28;20487;-82
2023/01/17 13:12:01;;;;;;;0.40;0.40;;;4.20;99.90;;;;;;5045801;28;20864;-82
2023/01/17 13:14:26;;;;;;;0.40;0.40;;;4.30;99.90;;;;;;5047583;28;20479;-82
2023/01/17 13:17:08;;;;;;;0.30;0.30;;;4.20;99.90;;;;;;5039187;28;20469;-82
2023/01/17 13:19:46;;;;;;;0.30;0.30;;;3.80;99.90;;;;;;5038395;28;20249;-81
2023/01/17 13:22:16;;;;;;;0.40;0.40;;;3.70;99.90;;;;;;5038026;28;20437;-80
2023/01/17 13:24:47;;;;;;;0.40;0.40;;;3.70;99.90;;;;;;5042537;28;20960;-80
2023/01/17 13:27:27;;;;;;;0.40;0.40;;;3.10;99.90;;;;;;5037266;28;20436;-80
2023/01/17 13:30:14;;;;;;;0.30;0.30;;;2.80;99.90;;;;;;5041896;28;20443;-81
2023/01/17 13:33:14;;;;;;;0.50;0.50;;;2.60;99.90;;;;;;5034234;28;20540;-81
2023/01/17 13:36:10;;;;;;;0.40;0.40;;;2.90;99.90;;;;;;5021442;28;20452;-80
2023/01/17 13:38:59;;;;;;;0.40;0.40;;;4.30;99.90;;;;;;5038780;28;20437;-82
2023/01/17 13:41:50;;;;;;;0.30;0.30;;;6.80;99.90;;;;;;5034692;28;20476;-79
2023/01/17 13:44:23;;;;;;;0.20;0.20;;;7.90;99.90;;;;;;5019790;28;20949;-78
2023/01/17 13:46:59;;;;;;;0.30;0.30;;;6.10;99.90;;;;;;5035383;28;20457;-78
2023/01/17 13:49:25;;;;;;;0.30;0.30;;;5.10;99.90;;;;;;5036211;28;20473;-78
2023/01/17 13:52:19;;;;;;;0.40;0.40;;;4.40;99.90;;;;;;5017227;28;20441;-79
2023/01/17 13:54:51;;;;;;;0.30;0.30;;;4.10;99.90;;;;;;5039358;28;20186;-79
2023/01/17 13:57:24;;;;;;;0.23;0.23;;;4.60;99.90;;;;;;5042895;28;20465;-80
2023/01/17 13:59:53;;;;;;;0.30;0.30;;;5.80;99.90;;;;;;5045491;28;20480;-79
2023/01/17 14:02:31;;;;;;;0.30;0.30;;;6.30;99.90;;;;;;5044183;28;20448;-80
2023/01/17 14:05:10;;;;;;;0.30;0.30;;;5.80;99.90;;;;;;5043034;28;20862;-80
2023/01/17 14:07:57;;;;;;;0.40;0.40;;;4.90;99.90;;;;;;5033591;28;20455;-80
2023/01/17 14:10:46;;;;;;;0.40;0.40;;;4.20;99.90;;;;;;5027689;28;20449;-79
2023/01/17 14:13:30;;;;;;;0.40;0.40;;;3.80;99.90;;;;;;5041266;28;20462;-80
2023/01/17 14:15:56;;;;;;;0.30;0.30;;;3.40;99.90;;;;;;5034151;28;20976;-79
2023/01/17 14:18:32;;;;;;;0.40;0.40;;;3.20;99.90;;;;;;5046638;28;20441;-80
2023/01/17 14:21:06;;;;;;;0.30;0.30;;;3.00;99.90;;;;;;5039022;28;20453;-80
2023/01/17 14:23:48;;;;;;;0.47;0.47;;;3.10;99.90;;;;;;5042666;28;20437;-82
2023/01/17 14:26:33;;;;;;;0.40;0.40;;;3.20;99.90;;;;;;5035722;28;20569;-80
2023/01/17 14:29:38;;;;;;;0.40;0.40;;;3.70;99.90;;;;;;5027251;28;20471;-80
2023/01/17 14:32:08;;;;;;;0.40;0.40;;;3.90;99.90;;;;;;5035208;28;20456;-80
2023/01/17 14:34:34;;;;;;;0.40;0.40;;;3.60;99.90;;;;;;5024272;28;20532;-82
2023/01/17 14:37:32;;;;;;;0.40;0.40;;;3.40;99.90;;;;;;5043716;28;20800;-81
2023/01/17 14:39:58;;;;;;;0.30;0.30;;;3.20;99.90;;;;;;5025458;28;20501;-82
2023/01/17 14:42:27;;;;;;;0.50;0.50;;;3.20;99.90;;;;;;5049101;28;20952;-81
2023/01/17 14:45:04;;;;;;;0.50;0.50;;;3.00;99.90;;;;;;5046541;28;20449;-81
2023/01/17 14:47:33;;;;;;;0.47;0.47;;;3.00;99.90;;;;;;5030459;28;20469;-82